createdAt,value
2023-04-27T00:01:13.248Z,3.27
2023-04-27T00:03:40.313Z,3.50
2023-04-27T00:06:08.377Z,3.40
2023-04-27T00:08:35.477Z,3.80
2023-04-27T00:11:02.213Z,3.60
2023-04-27T00:13:28.995Z,3.60
2023-04-27T00:15:55.738Z,3.57
2023-04-27T00:18:22.462Z,3.63
2023-04-27T00:20:49.764Z,3.70
2023-04-27T00:23:16.475Z,3.60
2023-04-27T00:25:43.149Z,3.50
2023-04-27T00:28:09.779Z,3.70
2023-04-27T00:30:36.457Z,3.40
2023-04-27T00:33:03.208Z,3.70
2023-04-27T00:35:29.998Z,3.93
2023-04-27T00:37:58.280Z,3.70
2023-04-27T00:40:24.963Z,3.77
2023-04-27T00:42:52.725Z,4.13
2023-04-27T00:45:19.415Z,3.73
2023-04-27T00:47:46.320Z,3.60
2023-04-27T00:50:12.993Z,3.77
2023-04-27T00:52:39.956Z,3.90
2023-04-27T00:55:07.265Z,3.90
2023-04-27T00:57:34.575Z,3.70
2023-04-27T01:00:02.247Z,3.73
2023-04-27T01:02:30.208Z,3.70
2023-04-27T01:04:57.261Z,4.27
2023-04-27T01:07:27.287Z,3.83
2023-04-27T01:09:54.112Z,3.80
2023-04-27T01:12:21.111Z,3.80
2023-04-27T01:14:48.809Z,4.00
2023-04-27T01:17:15.442Z,4.20
2023-04-27T01:19:42.371Z,4.00
2023-04-27T01:22:10.407Z,3.90
2023-04-27T01:24:38.077Z,4.10
2023-04-27T01:27:05.601Z,4.10
2023-04-27T01:29:32.376Z,4.50
2023-04-27T01:31:59.201Z,4.30
2023-04-27T01:34:26.063Z,4.03
2023-04-27T01:36:52.751Z,4.40
2023-04-27T01:39:21.184Z,4.23
2023-04-27T01:41:47.843Z,4.60
2023-04-27T01:44:14.546Z,4.30
2023-04-27T01:46:41.512Z,4.40
2023-04-27T01:49:08.486Z,4.37
2023-04-27T01:51:35.167Z,4.20
2023-04-27T01:54:01.776Z,4.33
2023-04-27T01:56:28.422Z,4.17
2023-04-27T01:58:55.841Z,4.27
2023-04-27T02:01:23.003Z,4.20
2023-04-27T02:03:50.048Z,4.60
2023-04-27T02:06:16.812Z,4.17
2023-04-27T02:08:43.492Z,4.40
2023-04-27T02:11:10.448Z,4.27
2023-04-27T02:13:37.121Z,4.33
2023-04-27T02:16:05.346Z,5.17
2023-04-27T02:18:32.781Z,4.47
2023-04-27T02:20:59.469Z,4.43
2023-04-27T02:23:26.182Z,4.50
2023-04-27T02:25:52.870Z,4.23
2023-04-27T02:28:19.520Z,4.10
2023-04-27T02:30:46.544Z,4.40
2023-04-27T02:33:13.195Z,4.20
2023-04-27T02:35:39.848Z,3.93
2023-04-27T02:38:06.719Z,3.67
2023-04-27T02:40:37.171Z,4.40
2023-04-27T02:43:06.246Z,4.30
2023-04-27T02:45:37.256Z,4.30
2023-04-27T02:48:05.970Z,4.33
2023-04-27T02:50:35.140Z,4.30
2023-04-27T02:53:02.867Z,4.70
2023-04-27T02:55:29.897Z,4.60
2023-04-27T02:57:56.595Z,4.27
2023-04-27T03:00:23.264Z,4.47
2023-04-27T03:02:50.098Z,4.23
2023-04-27T03:05:16.996Z,4.10
2023-04-27T03:07:43.787Z,4.50
2023-04-27T03:10:10.729Z,4.90
2023-04-27T03:12:37.350Z,4.43
2023-04-27T03:15:04.375Z,4.77
2023-04-27T03:17:31.332Z,4.70
2023-04-27T03:19:58.111Z,5.00
2023-04-27T03:22:24.995Z,4.90
2023-04-27T03:24:51.683Z,5.10
2023-04-27T03:27:18.340Z,4.37
2023-04-27T03:29:44.983Z,5.00
2023-04-27T03:32:11.682Z,4.33
2023-04-27T03:34:38.450Z,4.40
2023-04-27T03:37:06.395Z,4.40
2023-04-27T03:39:36.844Z,4.30
2023-04-27T03:42:03.870Z,4.50
2023-04-27T03:44:34.186Z,4.77
2023-04-27T03:47:01.860Z,4.53
2023-04-27T03:49:28.979Z,4.37
2023-04-27T03:51:56.420Z,5.07
2023-04-27T03:54:23.079Z,5.10
2023-04-27T03:56:49.925Z,5.00
2023-04-27T03:59:16.876Z,5.30
2023-04-27T04:01:49.076Z,5.03
2023-04-27T04:04:16.102Z,7.13
2023-04-27T04:06:42.979Z,6.50
2023-04-27T04:09:12.705Z,5.87
2023-04-27T04:11:40.171Z,5.73
2023-04-27T04:14:09.055Z,5.50
2023-04-27T04:16:35.696Z,6.00
2023-04-27T04:19:02.391Z,5.77
2023-04-27T04:21:29.175Z,5.50
2023-04-27T04:23:56.426Z,5.17
2023-04-27T04:26:23.647Z,5.40
2023-04-27T04:28:50.432Z,5.43
2023-04-27T04:31:18.306Z,5.20
2023-04-27T04:33:45.041Z,5.57
2023-04-27T04:36:11.779Z,5.40
2023-04-27T04:38:38.619Z,5.10
2023-04-27T04:41:05.376Z,5.27
2023-04-27T04:43:33.437Z,4.90
2023-04-27T04:46:03.658Z,5.00
2023-04-27T04:48:30.433Z,4.97
2023-04-27T04:50:57.416Z,4.00
2023-04-27T04:53:24.152Z,4.50
2023-04-27T04:55:50.885Z,4.50
2023-04-27T04:58:17.542Z,4.30
2023-04-27T05:00:44.406Z,4.67
2023-04-27T05:03:11.209Z,4.13
2023-04-27T05:05:38.006Z,4.27
2023-04-27T05:08:04.800Z,4.40
2023-04-27T05:10:31.473Z,4.07
2023-04-27T05:12:58.131Z,4.10
2023-04-27T05:15:24.767Z,4.57
2023-04-27T05:17:51.483Z,3.90
2023-04-27T05:20:18.226Z,4.37
2023-04-27T05:22:44.850Z,5.73
2023-04-27T05:25:11.717Z,3.90
2023-04-27T05:27:38.347Z,4.30
2023-04-27T05:30:05.369Z,3.90
2023-04-27T05:32:34.238Z,3.80
2023-04-27T05:35:01.006Z,4.10
2023-04-27T05:37:27.647Z,3.90
2023-04-27T05:39:54.220Z,4.30
2023-04-27T05:42:20.819Z,3.83
2023-04-27T05:44:47.602Z,4.07
2023-04-27T05:47:14.228Z,3.90
2023-04-27T05:49:40.884Z,3.97
2023-04-27T05:52:07.565Z,4.27
2023-04-27T05:54:34.232Z,4.00
2023-04-27T05:57:01.067Z,4.03
2023-04-27T05:59:29.400Z,4.53
2023-04-27T06:01:57.066Z,3.80
2023-04-27T06:04:23.996Z,3.47
2023-04-27T06:06:50.938Z,3.57
2023-04-27T06:09:17.593Z,4.03
2023-04-27T06:11:44.937Z,3.73
2023-04-27T06:14:11.582Z,3.40
2023-04-27T06:16:38.343Z,3.63
2023-04-27T06:19:04.992Z,3.40
2023-04-27T06:21:33.862Z,4.00
2023-04-27T06:24:01.151Z,3.93
2023-04-27T06:26:28.381Z,4.00
2023-04-27T06:28:56.212Z,3.87
2023-04-27T06:31:22.991Z,3.20
2023-04-27T06:33:49.730Z,3.60
2023-04-27T06:36:17.217Z,3.60
2023-04-27T06:38:43.912Z,3.30
2023-04-27T06:41:11.019Z,3.33
2023-04-27T06:43:37.945Z,3.03
2023-04-27T06:46:06.416Z,2.80
2023-04-27T06:48:33.094Z,2.67
2023-04-27T06:50:59.788Z,2.63
2023-04-27T06:53:26.995Z,2.60
2023-04-27T06:55:53.744Z,3.10
2023-04-27T06:58:20.484Z,2.70
2023-04-27T07:00:47.154Z,3.10
2023-04-27T07:03:14.755Z,3.30
2023-04-27T07:05:41.582Z,3.33
2023-04-27T07:08:09.132Z,3.03
2023-04-27T07:10:36.143Z,3.07
2023-04-27T07:13:02.808Z,3.40
2023-04-27T07:15:31.144Z,3.83
2023-04-27T07:17:57.836Z,3.33
2023-04-27T07:20:24.548Z,3.50
2023-04-27T07:22:51.211Z,3.20
2023-04-27T07:25:17.945Z,3.40
2023-04-27T07:27:45.348Z,3.43
2023-04-27T07:30:13.925Z,3.90
2023-04-27T07:32:41.986Z,3.83
2023-04-27T07:35:12.062Z,3.80
2023-04-27T07:37:38.783Z,3.50
2023-04-27T07:40:16.941Z,3.43
2023-04-27T07:42:46.480Z,3.63
2023-04-27T07:45:14.138Z,3.00
2023-04-27T07:47:40.864Z,3.83
2023-04-27T07:50:08.424Z,3.00
2023-04-27T07:52:35.104Z,3.00
2023-04-27T07:55:02.032Z,2.90
2023-04-27T07:57:28.701Z,2.70
2023-04-27T07:59:55.599Z,2.77
2023-04-27T08:02:22.340Z,2.47
2023-04-27T08:04:50.171Z,2.80
2023-04-27T08:07:17.820Z,2.60
2023-04-27T08:09:44.694Z,2.90
2023-04-27T08:12:11.295Z,2.47
2023-04-27T08:14:38.070Z,2.70
2023-04-27T08:17:04.810Z,2.47
2023-04-27T08:19:31.501Z,3.10
2023-04-27T08:21:58.141Z,2.50
2023-04-27T08:24:24.847Z,2.27
2023-04-27T08:26:51.552Z,2.50
2023-04-27T08:29:27.187Z,2.40
2023-04-27T08:31:57.982Z,2.50
2023-04-27T08:34:24.681Z,2.40
2023-04-27T08:36:51.616Z,2.37
2023-04-27T08:39:18.556Z,2.27
2023-04-27T08:41:45.588Z,2.43
2023-04-27T08:44:12.431Z,2.40
2023-04-27T08:46:39.718Z,2.30
2023-04-27T08:49:07.899Z,3.00
2023-04-27T08:51:35.454Z,2.60
2023-04-27T08:54:02.434Z,2.53
2023-04-27T08:56:30.166Z,2.70
2023-04-27T08:58:58.646Z,2.90
2023-04-27T09:01:27.423Z,2.90
2023-04-27T09:03:59.072Z,3.10
2023-04-27T09:06:33.099Z,3.00
2023-04-27T09:09:00.962Z,3.03
2023-04-27T09:11:31.295Z,2.63
2023-04-27T09:13:59.836Z,3.23
2023-04-27T09:16:29.232Z,2.93
2023-04-27T09:18:57.368Z,3.10
2023-04-27T09:21:24.536Z,2.87
2023-04-27T09:23:51.813Z,3.07
2023-04-27T09:26:23.659Z,3.10
2023-04-27T09:28:52.139Z,3.00
2023-04-27T09:31:19.249Z,2.93
2023-04-27T09:33:47.523Z,3.03
2023-04-27T09:36:14.454Z,3.10
2023-04-27T09:38:41.536Z,3.00
2023-04-27T09:41:08.252Z,3.30
2023-04-27T09:43:35.170Z,3.17
2023-04-27T09:46:04.561Z,3.30
2023-04-27T09:48:31.273Z,2.90
2023-04-27T09:50:57.901Z,3.40
2023-04-27T09:53:45.568Z,3.47
2023-04-27T09:56:31.017Z,3.33
2023-04-27T09:59:09.976Z,3.10
2023-04-27T10:01:50.805Z,3.30
2023-04-27T10:04:39.454Z,3.13
2023-04-27T10:07:12.797Z,3.10
2023-04-27T10:09:51.733Z,3.27
2023-04-27T10:12:18.467Z,3.43
2023-04-27T10:14:48.863Z,3.20
2023-04-27T10:17:16.123Z,3.17
2023-04-27T10:19:57.362Z,2.80
2023-04-27T10:22:26.210Z,2.73
2023-04-27T10:24:52.832Z,3.53
2023-04-27T10:27:22.554Z,3.40
2023-04-27T10:29:49.838Z,3.20
2023-04-27T10:32:25.096Z,3.10
2023-04-27T10:35:02.270Z,3.57
2023-04-27T10:37:39.702Z,3.50
2023-04-27T10:40:08.631Z,3.00
2023-04-27T10:42:36.308Z,3.13
2023-04-27T10:45:03.249Z,3.10
2023-04-27T10:47:38.208Z,3.33
2023-04-27T10:50:06.098Z,3.60
2023-04-27T10:52:33.082Z,3.50
2023-04-27T10:55:12.732Z,3.50
2023-04-27T10:58:06.050Z,2.90
2023-04-27T11:00:39.583Z,3.43
2023-04-27T11:03:25.348Z,3.20
2023-04-27T11:06:05.655Z,3.27
2023-04-27T11:08:36.819Z,3.27
2023-04-27T11:11:05.103Z,3.30
2023-04-27T11:13:33.535Z,3.50
2023-04-27T11:16:00.692Z,3.30
2023-04-27T11:18:31.180Z,3.10
2023-04-27T11:21:09.426Z,3.20
2023-04-27T11:23:39.801Z,3.10
2023-04-27T11:26:15.215Z,3.13
2023-04-27T11:28:43.311Z,3.43
2023-04-27T11:31:10.183Z,3.17
2023-04-27T11:33:37.110Z,3.20
2023-04-27T11:36:03.935Z,3.13
2023-04-27T11:38:34.347Z,3.17
2023-04-27T11:41:05.836Z,3.10
2023-04-27T11:43:33.435Z,2.90
2023-04-27T11:46:10.545Z,2.97
2023-04-27T11:48:38.370Z,2.90
2023-04-27T11:51:06.059Z,2.83
2023-04-27T11:53:34.926Z,2.87
2023-04-27T11:56:05.163Z,2.97
2023-04-27T11:58:36.329Z,2.87
2023-04-27T12:01:07.417Z,3.00
2023-04-27T12:03:34.741Z,3.53
2023-04-27T12:08:31.750Z,2.80
2023-04-27T12:10:58.495Z,3.03
2023-04-27T12:13:25.168Z,3.00
2023-04-27T12:15:52.487Z,2.53
2023-04-27T12:18:19.131Z,2.90
2023-04-27T12:20:46.500Z,3.13
2023-04-27T12:23:13.138Z,3.07
2023-04-27T12:25:41.224Z,2.90
2023-04-27T12:28:08.104Z,2.90
2023-04-27T12:30:35.070Z,2.60
2023-04-27T12:33:02.543Z,3.30
2023-04-27T12:35:32.164Z,3.10
2023-04-27T12:37:59.013Z,2.77
2023-04-27T12:40:25.758Z,3.00
2023-04-27T12:42:52.416Z,2.67
2023-04-27T12:45:19.057Z,2.80
2023-04-27T12:47:58.645Z,3.17
2023-04-27T12:50:29.055Z,2.80
2023-04-27T12:52:55.687Z,2.90
2023-04-27T12:55:32.201Z,2.67
2023-04-27T12:58:00.230Z,3.33
2023-04-27T13:00:27.036Z,2.97
2023-04-27T13:02:53.986Z,3.10
2023-04-27T13:05:22.157Z,2.80
2023-04-27T13:07:48.973Z,3.07
2023-04-27T13:10:15.992Z,3.00
2023-04-27T13:12:42.836Z,2.50
2023-04-27T13:15:10.153Z,2.60
2023-04-27T13:17:37.189Z,2.97
2023-04-27T13:20:04.073Z,3.37
2023-04-27T13:22:30.784Z,2.87
2023-04-27T13:24:58.130Z,2.80
2023-04-27T13:27:28.329Z,3.17
2023-04-27T13:29:55.018Z,3.20
2023-04-27T13:32:22.336Z,3.10
2023-04-27T13:34:49.389Z,3.10
2023-04-27T13:37:16.618Z,3.03
2023-04-27T13:39:43.351Z,3.50
2023-04-27T13:42:10.155Z,2.70
2023-04-27T13:44:36.750Z,2.87
2023-04-27T13:47:03.514Z,2.50
2023-04-27T13:49:30.304Z,2.77
2023-04-27T13:51:56.941Z,2.80
2023-04-27T13:54:23.703Z,2.90
2023-04-27T13:56:50.455Z,3.00
2023-04-27T13:59:17.250Z,3.20
2023-04-27T14:01:44.032Z,3.00
2023-04-27T14:04:10.851Z,3.07
2023-04-27T14:06:37.720Z,3.13
2023-04-27T14:09:04.927Z,3.40
2023-04-27T14:11:37.197Z,3.67
2023-04-27T14:14:08.986Z,3.30
2023-04-27T14:16:35.806Z,2.80
2023-04-27T14:19:02.636Z,2.80
2023-04-27T14:21:29.348Z,3.30
2023-04-27T14:23:56.239Z,2.90
2023-04-27T14:26:22.959Z,3.20
2023-04-27T14:28:49.598Z,3.43
2023-04-27T14:31:16.251Z,3.20
2023-04-27T14:33:42.954Z,3.60
2023-04-27T14:36:09.713Z,3.30
2023-04-27T14:38:36.386Z,3.47
2023-04-27T14:41:05.716Z,2.80
2023-04-27T14:43:32.362Z,3.20
2023-04-27T14:46:05.134Z,3.20
2023-04-27T14:48:46.504Z,2.87
2023-04-27T14:51:16.728Z,3.20
2023-04-27T14:53:44.059Z,3.27
2023-04-27T14:56:11.320Z,3.63
2023-04-27T14:58:37.983Z,3.63
2023-04-27T15:01:04.681Z,3.40
2023-04-27T15:03:34.591Z,3.13
2023-04-27T15:06:01.957Z,4.17
2023-04-27T15:08:30.158Z,3.80
2023-04-27T15:10:59.868Z,3.80
2023-04-27T15:13:27.457Z,3.40
2023-04-27T15:15:58.339Z,3.73
2023-04-27T15:18:25.635Z,3.30
2023-04-27T15:20:56.581Z,3.60
2023-04-27T15:23:24.364Z,3.90
2023-04-27T15:25:53.856Z,3.60
2023-04-27T15:28:20.516Z,3.50
2023-04-27T15:30:47.424Z,3.57
2023-04-27T15:33:15.150Z,3.80
2023-04-27T15:35:42.109Z,3.70
2023-04-27T15:38:10.611Z,3.40
2023-04-27T15:40:37.235Z,3.70
2023-04-27T15:43:04.907Z,3.73
2023-04-27T15:45:31.953Z,3.57
2023-04-27T15:47:58.940Z,4.07
2023-04-27T15:50:26.002Z,3.97
2023-04-27T15:52:52.997Z,3.60
2023-04-27T15:55:19.728Z,3.70
2023-04-27T15:57:46.458Z,3.83
2023-04-27T16:00:16.325Z,4.27
2023-04-27T16:02:43.291Z,4.33
2023-04-27T16:05:10.329Z,4.60
2023-04-27T16:07:39.416Z,4.30
2023-04-27T16:10:07.260Z,4.60
2023-04-27T16:12:33.949Z,4.47
2023-04-27T16:15:01.026Z,4.20
2023-04-27T16:17:29.211Z,4.43
2023-04-27T16:19:55.976Z,4.10
2023-04-27T16:22:22.688Z,3.73
2023-04-27T16:24:49.532Z,3.90
2023-04-27T16:27:20.881Z,4.20
2023-04-27T16:29:47.634Z,4.73
2023-04-27T16:32:14.423Z,5.00
2023-04-27T16:34:41.609Z,4.90
2023-04-27T16:37:08.288Z,4.60
2023-04-27T16:39:35.000Z,4.97
2023-04-27T16:42:01.645Z,4.33
2023-04-27T16:44:28.377Z,4.63
2023-04-27T16:46:55.029Z,4.03
2023-04-27T16:49:21.633Z,4.53
2023-04-27T16:51:48.363Z,4.70
2023-04-27T16:54:16.556Z,4.37
2023-04-27T16:56:43.331Z,4.23
2023-04-27T16:59:12.490Z,4.33
2023-04-27T17:01:40.022Z,4.10
2023-04-27T17:04:06.831Z,4.50
2023-04-27T17:06:34.911Z,4.30
2023-04-27T17:09:01.726Z,4.10
2023-04-27T17:11:28.381Z,4.20
2023-04-27T17:13:55.092Z,4.10
2023-04-27T17:16:21.998Z,4.00
2023-04-27T17:18:49.095Z,4.00
2023-04-27T17:21:16.828Z,4.17
2023-04-27T17:23:46.511Z,3.70
2023-04-27T17:26:15.944Z,3.77
2023-04-27T17:28:42.655Z,4.13
2023-04-27T17:31:09.306Z,3.90
2023-04-27T17:33:36.076Z,3.70
2023-04-27T17:36:02.847Z,3.60
2023-04-27T17:38:29.492Z,3.70
2023-04-27T17:40:56.341Z,3.20
2023-04-27T17:43:22.976Z,3.27
2023-04-27T17:45:49.687Z,3.13
2023-04-27T17:48:16.437Z,3.50
2023-04-27T17:50:43.534Z,3.13
2023-04-27T17:53:10.178Z,2.97
2023-04-27T17:55:36.823Z,3.00
2023-04-27T17:58:06.222Z,2.87
2023-04-27T18:00:33.131Z,2.90
2023-04-27T18:02:59.872Z,2.73
2023-04-27T18:05:27.419Z,2.67
2023-04-27T18:07:54.112Z,2.50
2023-04-27T18:10:20.865Z,2.90
2023-04-27T18:12:47.586Z,3.10
2023-04-27T18:15:14.226Z,2.87
2023-04-27T18:17:41.141Z,2.77
2023-04-27T18:20:10.500Z,3.43
2023-04-27T18:22:39.630Z,3.40
2023-04-27T18:25:07.242Z,3.17
2023-04-27T18:27:33.928Z,4.30
2023-04-27T18:30:00.738Z,4.40
2023-04-27T18:32:27.474Z,3.73
2023-04-27T18:34:54.182Z,3.80
2023-04-27T18:37:20.921Z,4.20
2023-04-27T18:39:47.642Z,4.13
2023-04-27T18:42:14.257Z,4.37
2023-04-27T18:44:40.987Z,4.90
2023-04-27T18:47:07.946Z,5.53
2023-04-27T18:49:34.660Z,5.63
2023-04-27T18:52:01.400Z,6.87
2023-04-27T18:54:28.039Z,7.50
2023-04-27T18:56:54.768Z,6.77
2023-04-27T18:59:21.532Z,7.47
2023-04-27T19:01:48.262Z,7.10
2023-04-27T19:04:16.408Z,6.90
2023-04-27T19:06:43.225Z,6.60
2023-04-27T19:09:10.208Z,6.53
2023-04-27T19:11:36.946Z,6.40
2023-04-27T19:14:03.605Z,6.20
2023-04-27T19:16:30.350Z,6.67
2023-04-27T19:18:57.072Z,6.20
2023-04-27T19:21:23.739Z,6.33
2023-04-27T19:23:50.364Z,6.50
2023-04-27T19:26:17.044Z,5.60
2023-04-27T19:28:43.698Z,5.33
2023-04-27T19:31:10.530Z,5.70
2023-04-27T19:33:37.269Z,6.10
2023-04-27T19:36:04.360Z,5.57
2023-04-27T19:38:31.046Z,6.50
2023-04-27T19:40:57.784Z,8.07
2023-04-27T19:43:24.415Z,7.53
2023-04-27T19:45:51.384Z,7.40
2023-04-27T19:48:18.244Z,6.27
2023-04-27T19:50:45.016Z,6.20
2023-04-27T19:53:11.732Z,6.20
2023-04-27T19:55:39.216Z,7.10
2023-04-27T19:58:06.328Z,6.87
2023-04-27T20:00:33.392Z,6.83
2023-04-27T20:03:00.226Z,7.33
2023-04-27T20:05:27.219Z,6.60
2023-04-27T20:07:54.135Z,7.43
2023-04-27T20:10:21.472Z,7.17
2023-04-27T20:12:56.550Z,6.47
2023-04-27T20:15:24.494Z,6.77
2023-04-27T20:17:51.945Z,6.00
2023-04-27T20:20:19.293Z,4.87
2023-04-27T20:22:46.099Z,5.97
2023-04-27T20:25:14.857Z,5.40
2023-04-27T20:27:41.890Z,4.83
2023-04-27T20:30:09.101Z,4.80
2023-04-27T20:32:36.396Z,4.80
2023-04-27T20:35:04.804Z,5.27
2023-04-27T20:37:32.437Z,5.00
2023-04-27T20:39:59.504Z,4.50
2023-04-27T20:42:26.241Z,4.43
2023-04-27T20:44:54.873Z,4.30
2023-04-27T20:47:21.984Z,4.57
2023-04-27T20:49:48.945Z,5.00
2023-04-27T20:52:15.833Z,4.43
2023-04-27T20:54:42.518Z,4.93
2023-04-27T20:57:13.496Z,4.97
2023-04-27T20:59:41.126Z,5.10
2023-04-27T21:02:07.816Z,5.30
2023-04-27T21:04:34.642Z,5.13
2023-04-27T21:07:01.448Z,4.70
2023-04-27T21:09:28.233Z,4.77
2023-04-27T21:11:55.003Z,5.07
2023-04-27T21:14:21.760Z,5.10
2023-04-27T21:16:48.428Z,5.07
2023-04-27T21:19:16.575Z,4.60
2023-04-27T21:21:43.396Z,4.33
2023-04-27T21:24:10.244Z,4.50
2023-04-27T21:26:36.885Z,4.93
2023-04-27T21:29:05.547Z,4.70
2023-04-27T21:31:33.332Z,4.93
2023-04-27T21:34:00.196Z,5.20
2023-04-27T21:36:26.925Z,6.10
2023-04-27T21:38:53.667Z,6.10
2023-04-27T21:41:20.346Z,5.43
2023-04-27T21:43:47.016Z,6.20
2023-04-27T21:46:13.726Z,6.67
2023-04-27T21:48:40.404Z,6.67
2023-04-27T21:51:07.045Z,6.67
2023-04-27T21:53:33.668Z,9.23
2023-04-27T21:56:00.358Z,8.30
2023-04-27T21:58:28.689Z,7.70
2023-04-27T22:00:55.368Z,5.90
2023-04-27T22:03:22.759Z,5.40
2023-04-27T22:05:50.343Z,5.03
2023-04-27T22:08:18.387Z,5.17
2023-04-27T22:10:45.540Z,5.70
2023-04-27T22:13:18.365Z,5.47
2023-04-27T22:15:46.526Z,4.83
2023-04-27T22:18:17.329Z,5.00
2023-04-27T22:20:44.173Z,5.10
2023-04-27T22:23:12.102Z,5.13
2023-04-27T22:25:38.816Z,5.20
2023-04-27T22:28:05.454Z,4.80
2023-04-27T22:30:32.142Z,4.83
2023-04-27T22:32:58.962Z,4.83
2023-04-27T22:35:27.577Z,5.00
2023-04-27T22:37:59.324Z,5.07
2023-04-27T22:40:26.447Z,5.63
2023-04-27T22:42:54.109Z,5.20
2023-04-27T22:45:22.162Z,5.20
2023-04-27T22:47:49.606Z,5.70
2023-04-27T22:50:16.811Z,4.90
2023-04-27T22:52:43.587Z,5.50
2023-04-27T22:55:11.452Z,5.90
2023-04-27T22:57:38.935Z,5.53
2023-04-27T23:00:11.658Z,5.33
2023-04-27T23:02:39.762Z,5.87
2023-04-27T23:05:11.013Z,5.90
2023-04-27T23:07:38.515Z,6.23
2023-04-27T23:10:06.097Z,6.20
2023-04-27T23:12:33.282Z,6.40
2023-04-27T23:15:00.055Z,7.67
2023-04-27T23:17:32.794Z,7.27
2023-04-27T23:20:00.685Z,6.83
2023-04-27T23:22:27.929Z,7.70
2023-04-27T23:24:55.037Z,7.10
2023-04-27T23:27:22.714Z,6.50
2023-04-27T23:29:49.379Z,6.40
2023-04-27T23:32:16.054Z,6.83
2023-04-27T23:34:42.696Z,6.93
2023-04-27T23:37:09.348Z,6.60
2023-04-27T23:39:37.001Z,6.97
2023-04-27T23:42:03.837Z,7.53
2023-04-27T23:44:30.551Z,7.40
2023-04-27T23:46:57.530Z,7.40
2023-04-27T23:49:24.241Z,7.30
2023-04-27T23:51:52.476Z,7.37
2023-04-27T23:54:19.214Z,7.23
2023-04-27T23:56:47.309Z,7.90
2023-04-27T23:59:15.039Z,8.07
